sensor_id;sensor_type;location;lat;lon;timestamp;temperature;humidity
65034;DHT22;51601;51.356;12.458;2022-08-11T00:00:09;20.00;47.30
65034;DHT22;51601;51.356;12.458;2022-08-11T00:04:44;20.00;47.80
65034;DHT22;51601;51.356;12.458;2022-08-11T00:09:22;19.90;48.00
65034;DHT22;51601;51.356;12.458;2022-08-11T00:14:17;19.80;48.10
65034;DHT22;51601;51.356;12.458;2022-08-11T00:18:54;19.70;48.40
65034;DHT22;51601;51.356;12.458;2022-08-11T00:23:29;19.70;49.30
65034;DHT22;51601;51.356;12.458;2022-08-11T00:28:03;19.60;48.80
65034;DHT22;51601;51.356;12.458;2022-08-11T00:32:40;19.60;48.90
65034;DHT22;51601;51.356;12.458;2022-08-11T00:37:19;19.60;49.10
65034;DHT22;51601;51.356;12.458;2022-08-11T00:42:03;19.70;48.90
65034;DHT22;51601;51.356;12.458;2022-08-11T00:46:49;19.70;48.70
65034;DHT22;51601;51.356;12.458;2022-08-11T00:51:40;19.70;48.70
65034;DHT22;51601;51.356;12.458;2022-08-11T01:02:15;19.60;49.00
65034;DHT22;51601;51.356;12.458;2022-08-11T01:07:29;19.40;49.40
65034;DHT22;51601;51.356;12.458;2022-08-11T01:12:39;19.40;49.60
65034;DHT22;51601;51.356;12.458;2022-08-11T01:39:03;19.00;51.00
65034;DHT22;51601;51.356;12.458;2022-08-11T01:44:03;18.90;51.30
65034;DHT22;51601;51.356;12.458;2022-08-11T01:49:05;18.80;51.50
65034;DHT22;51601;51.356;12.458;2022-08-11T01:54:08;18.70;51.70
65034;DHT22;51601;51.356;12.458;2022-08-11T01:58:48;18.50;52.30
65034;DHT22;51601;51.356;12.458;2022-08-11T02:03:35;18.30;52.80
65034;DHT22;51601;51.356;12.458;2022-08-11T02:08:22;18.10;53.20
65034;DHT22;51601;51.356;12.458;2022-08-11T02:13:14;18.00;54.50
65034;DHT22;51601;51.356;12.458;2022-08-11T02:18:23;17.90;54.70
65034;DHT22;51601;51.356;12.458;2022-08-11T02:23:25;17.80;55.40
65034;DHT22;51601;51.356;12.458;2022-08-11T02:28:48;17.80;55.60
65034;DHT22;51601;51.356;12.458;2022-08-11T02:33:25;17.60;55.60
65034;DHT22;51601;51.356;12.458;2022-08-11T02:38:15;17.60;55.50
65034;DHT22;51601;51.356;12.458;2022-08-11T02:42:58;17.60;55.70
65034;DHT22;51601;51.356;12.458;2022-08-11T02:47:45;17.60;55.80
65034;DHT22;51601;51.356;12.458;2022-08-11T02:52:48;17.50;56.00
65034;DHT22;51601;51.356;12.458;2022-08-11T02:57:28;17.50;56.30
65034;DHT22;51601;51.356;12.458;2022-08-11T03:02:12;17.50;56.60
65034;DHT22;51601;51.356;12.458;2022-08-11T03:06:51;17.60;57.00
65034;DHT22;51601;51.356;12.458;2022-08-11T03:11:41;17.60;57.00
65034;DHT22;51601;51.356;12.458;2022-08-11T03:16:42;17.60;56.70
65034;DHT22;51601;51.356;12.458;2022-08-11T03:21:22;17.60;56.70
65034;DHT22;51601;51.356;12.458;2022-08-11T03:26:27;17.60;57.00
65034;DHT22;51601;51.356;12.458;2022-08-11T03:31:17;17.60;57.50
65034;DHT22;51601;51.356;12.458;2022-08-11T03:36:12;17.60;57.40
65034;DHT22;51601;51.356;12.458;2022-08-11T03:41:04;17.50;57.50
65034;DHT22;51601;51.356;12.458;2022-08-11T03:46:26;17.40;57.80
65034;DHT22;51601;51.356;12.458;2022-08-11T03:51:08;17.40;58.00
65034;DHT22;51601;51.356;12.458;2022-08-11T03:56:07;17.30;58.40
65034;DHT22;51601;51.356;12.458;2022-08-11T04:00:56;17.30;58.50
65034;DHT22;51601;51.356;12.458;2022-08-11T04:11:19;17.50;58.60
65034;DHT22;51601;51.356;12.458;2022-08-11T04:21:19;18.40;57.70
65034;DHT22;51601;51.356;12.458;2022-08-11T04:26:11;19.00;56.60
65034;DHT22;51601;51.356;12.458;2022-08-11T04:31:02;19.80;55.40
65034;DHT22;51601;51.356;12.458;2022-08-11T04:35:50;20.30;54.10
65034;DHT22;51601;51.356;12.458;2022-08-11T04:45:39;21.80;51.30
65034;DHT22;51601;51.356;12.458;2022-08-11T04:50:25;22.50;50.10
65034;DHT22;51601;51.356;12.458;2022-08-11T05:01:15;24.30;45.90
65034;DHT22;51601;51.356;12.458;2022-08-11T05:06:32;24.90;44.00
65034;DHT22;51601;51.356;12.458;2022-08-11T05:16:41;25.90;43.40
65034;DHT22;51601;51.356;12.458;2022-08-11T05:21:41;26.90;42.20
65034;DHT22;51601;51.356;12.458;2022-08-11T05:26:48;27.80;40.60
65034;DHT22;51601;51.356;12.458;2022-08-11T05:31:49;28.60;38.00
65034;DHT22;51601;51.356;12.458;2022-08-11T05:36:45;29.00;37.30
65034;DHT22;51601;51.356;12.458;2022-08-11T05:41:24;29.60;36.50
65034;DHT22;51601;51.356;12.458;2022-08-11T05:46:17;30.20;35.80
65034;DHT22;51601;51.356;12.458;2022-08-11T05:51:09;30.70;33.70
65034;DHT22;51601;51.356;12.458;2022-08-11T05:56:06;31.20;33.50
65034;DHT22;51601;51.356;12.458;2022-08-11T06:00:51;31.70;32.10
65034;DHT22;51601;51.356;12.458;2022-08-11T06:05:32;32.00;31.70
65034;DHT22;51601;51.356;12.458;2022-08-11T06:10:25;32.30;30.60
65034;DHT22;51601;51.356;12.458;2022-08-11T06:15:04;32.40;30.00
65034;DHT22;51601;51.356;12.458;2022-08-11T06:19:40;32.50;29.80
65034;DHT22;51601;51.356;12.458;2022-08-11T06:24:15;32.50;29.70
65034;DHT22;51601;51.356;12.458;2022-08-11T06:28:50;32.80;29.70
65034;DHT22;51601;51.356;12.458;2022-08-11T06:33:33;33.20;29.40
65034;DHT22;51601;51.356;12.458;2022-08-11T06:38:10;33.60;29.20
65034;DHT22;51601;51.356;12.458;2022-08-11T06:42:52;34.20;28.80
65034;DHT22;51601;51.356;12.458;2022-08-11T06:47:27;34.80;28.30
65034;DHT22;51601;51.356;12.458;2022-08-11T06:52:05;35.10;27.90
65034;DHT22;51601;51.356;12.458;2022-08-11T06:57:00;35.40;27.90
65034;DHT22;51601;51.356;12.458;2022-08-11T07:02:06;36.00;27.30
65034;DHT22;51601;51.356;12.458;2022-08-11T07:06:54;36.40;26.70
65034;DHT22;51601;51.356;12.458;2022-08-11T07:12:08;36.90;26.40
65034;DHT22;51601;51.356;12.458;2022-08-11T07:17:09;37.50;26.10
65034;DHT22;51601;51.356;12.458;2022-08-11T07:21:45;37.80;25.80
65034;DHT22;51601;51.356;12.458;2022-08-11T07:26:40;38.50;25.70
65034;DHT22;51601;51.356;12.458;2022-08-11T07:31:37;39.40;24.90
65034;DHT22;51601;51.356;12.458;2022-08-11T07:36:15;39.90;24.40
65034;DHT22;51601;51.356;12.458;2022-08-11T07:40:50;40.40;24.10
65034;DHT22;51601;51.356;12.458;2022-08-11T07:45:25;41.00;24.00
65034;DHT22;51601;51.356;12.458;2022-08-11T07:50:20;41.50;23.40
65034;DHT22;51601;51.356;12.458;2022-08-11T07:55:15;41.80;23.00
65034;DHT22;51601;51.356;12.458;2022-08-11T07:59:51;42.00;22.80
65034;DHT22;51601;51.356;12.458;2022-08-11T08:04:45;42.10;22.60
65034;DHT22;51601;51.356;12.458;2022-08-11T08:09:38;42.50;22.50
65034;DHT22;51601;51.356;12.458;2022-08-11T08:14:31;42.90;22.60
65034;DHT22;51601;51.356;12.458;2022-08-11T08:19:23;43.00;21.90
65034;DHT22;51601;51.356;12.458;2022-08-11T08:23:58;43.10;21.90
65034;DHT22;51601;51.356;12.458;2022-08-11T08:28:34;43.50;21.70
65034;DHT22;51601;51.356;12.458;2022-08-11T08:33:11;44.00;21.30
65034;DHT22;51601;51.356;12.458;2022-08-11T08:37:45;44.50;21.00
65034;DHT22;51601;51.356;12.458;2022-08-11T08:42:23;44.60;20.60
65034;DHT22;51601;51.356;12.458;2022-08-11T08:46:59;44.00;20.70
65034;DHT22;51601;51.356;12.458;2022-08-11T08:51:37;43.10;20.60
65034;DHT22;51601;51.356;12.458;2022-08-11T08:56:33;42.20;20.80
65034;DHT22;51601;51.356;12.458;2022-08-11T09:01:09;42.30;21.20
65034;DHT22;51601;51.356;12.458;2022-08-11T09:05:46;42.70;20.80
65034;DHT22;51601;51.356;12.458;2022-08-11T09:10:22;41.80;21.40
65034;DHT22;51601;51.356;12.458;2022-08-11T09:14:57;41.00;21.20
65034;DHT22;51601;51.356;12.458;2022-08-11T09:19:36;40.20;21.70
65034;DHT22;51601;51.356;12.458;2022-08-11T09:24:12;39.70;21.50
65034;DHT22;51601;51.356;12.458;2022-08-11T09:29:04;39.40;21.60
65034;DHT22;51601;51.356;12.458;2022-08-11T09:33:41;39.70;21.70
65034;DHT22;51601;51.356;12.458;2022-08-11T09:38:17;40.30;21.70
65034;DHT22;51601;51.356;12.458;2022-08-11T09:43:12;41.30;21.20
65034;DHT22;51601;51.356;12.458;2022-08-11T09:48:05;41.60;20.90
65034;DHT22;51601;51.356;12.458;2022-08-11T09:52:40;40.90;21.10
65034;DHT22;51601;51.356;12.458;2022-08-11T09:57:34;40.20;21.30
65034;DHT22;51601;51.356;12.458;2022-08-11T10:02:30;40.00;21.20
65034;DHT22;51601;51.356;12.458;2022-08-11T10:07:05;39.30;21.10
65034;DHT22;51601;51.356;12.458;2022-08-11T10:11:42;38.40;21.90
65034;DHT22;51601;51.356;12.458;2022-08-11T10:16:31;37.90;22.20
65034;DHT22;51601;51.356;12.458;2022-08-11T10:21:11;37.70;22.60
65034;DHT22;51601;51.356;12.458;2022-08-11T10:25:47;37.70;22.70
65034;DHT22;51601;51.356;12.458;2022-08-11T10:30:39;37.70;22.80
65034;DHT22;51601;51.356;12.458;2022-08-11T10:35:31;37.20;23.10
65034;DHT22;51601;51.356;12.458;2022-08-11T10:40:08;36.90;23.30
65034;DHT22;51601;51.356;12.458;2022-08-11T10:44:46;36.10;23.60
65034;DHT22;51601;51.356;12.458;2022-08-11T10:49:22;35.90;23.70
65034;DHT22;51601;51.356;12.458;2022-08-11T10:53:56;36.60;23.60
65034;DHT22;51601;51.356;12.458;2022-08-11T10:58:50;37.40;22.80
65034;DHT22;51601;51.356;12.458;2022-08-11T11:03:28;37.50;22.80
65034;DHT22;51601;51.356;12.458;2022-08-11T11:08:09;37.60;22.90
65034;DHT22;51601;51.356;12.458;2022-08-11T11:13:04;38.20;22.60
65034;DHT22;51601;51.356;12.458;2022-08-11T11:18:00;38.60;22.00
65034;DHT22;51601;51.356;12.458;2022-08-11T11:22:38;38.20;22.20
65034;DHT22;51601;51.356;12.458;2022-08-11T11:27:18;38.20;22.10
65034;DHT22;51601;51.356;12.458;2022-08-11T11:32:04;37.50;22.60
65034;DHT22;51601;51.356;12.458;2022-08-11T11:36:47;37.00;22.90
65034;DHT22;51601;51.356;12.458;2022-08-11T11:41:22;36.40;22.60
65034;DHT22;51601;51.356;12.458;2022-08-11T11:46:00;36.00;22.60
65034;DHT22;51601;51.356;12.458;2022-08-11T11:50:36;35.80;22.80
65034;DHT22;51601;51.356;12.458;2022-08-11T11:55:11;35.70;22.90
65034;DHT22;51601;51.356;12.458;2022-08-11T11:59:47;35.80;23.00
65034;DHT22;51601;51.356;12.458;2022-08-11T12:04:43;36.10;22.80
65034;DHT22;51601;51.356;12.458;2022-08-11T12:09:19;35.80;22.90
65034;DHT22;51601;51.356;12.458;2022-08-11T12:14:01;34.60;23.80
65034;DHT22;51601;51.356;12.458;2022-08-11T12:18:42;33.10;24.80
65034;DHT22;51601;51.356;12.458;2022-08-11T12:23:21;32.10;25.60
65034;DHT22;51601;51.356;12.458;2022-08-11T12:28:12;31.30;26.20
65034;DHT22;51601;51.356;12.458;2022-08-11T12:32:48;30.60;27.00
65034;DHT22;51601;51.356;12.458;2022-08-11T12:37:26;30.30;27.60
65034;DHT22;51601;51.356;12.458;2022-08-11T12:42:03;30.00;27.80
65034;DHT22;51601;51.356;12.458;2022-08-11T12:46:58;29.90;28.00
65034;DHT22;51601;51.356;12.458;2022-08-11T12:51:37;30.00;28.00
65034;DHT22;51601;51.356;12.458;2022-08-11T12:56:50;29.90;27.90
65034;DHT22;51601;51.356;12.458;2022-08-11T13:01:46;30.00;27.70
65034;DHT22;51601;51.356;12.458;2022-08-11T13:06:40;30.00;27.70
65034;DHT22;51601;51.356;12.458;2022-08-11T13:11:16;30.00;27.80
65034;DHT22;51601;51.356;12.458;2022-08-11T13:16:30;29.80;27.60
65034;DHT22;51601;51.356;12.458;2022-08-11T13:21:26;29.60;27.70
65034;DHT22;51601;51.356;12.458;2022-08-11T13:26:02;29.60;27.90
65034;DHT22;51601;51.356;12.458;2022-08-11T13:30:36;29.70;28.10
65034;DHT22;51601;51.356;12.458;2022-08-11T13:35:29;29.70;27.70
65034;DHT22;51601;51.356;12.458;2022-08-11T13:40:05;29.60;27.80
65034;DHT22;51601;51.356;12.458;2022-08-11T13:44:42;29.50;28.30
65034;DHT22;51601;51.356;12.458;2022-08-11T13:49:16;29.50;28.50
65034;DHT22;51601;51.356;12.458;2022-08-11T13:53:51;29.50;28.70
65034;DHT22;51601;51.356;12.458;2022-08-11T13:58:33;29.50;28.60
65034;DHT22;51601;51.356;12.458;2022-08-11T14:03:14;29.50;28.10
65034;DHT22;51601;51.356;12.458;2022-08-11T14:07:52;29.50;28.10
65034;DHT22;51601;51.356;12.458;2022-08-11T14:12:28;29.40;28.30
65034;DHT22;51601;51.356;12.458;2022-08-11T14:23:52;29.50;28.40
65034;DHT22;51601;51.356;12.458;2022-08-11T14:28:33;29.60;28.50
65034;DHT22;51601;51.356;12.458;2022-08-11T14:33:15;29.70;28.60
65034;DHT22;51601;51.356;12.458;2022-08-11T14:37:53;29.60;28.30
65034;DHT22;51601;51.356;12.458;2022-08-11T14:42:29;29.50;28.40
65034;DHT22;51601;51.356;12.458;2022-08-11T14:47:21;29.60;28.70
65034;DHT22;51601;51.356;12.458;2022-08-11T14:51:57;29.70;28.70
65034;DHT22;51601;51.356;12.458;2022-08-11T14:56:32;29.60;28.30
65034;DHT22;51601;51.356;12.458;2022-08-11T15:01:11;29.60;28.50
65034;DHT22;51601;51.356;12.458;2022-08-11T15:06:00;29.60;28.50
65034;DHT22;51601;51.356;12.458;2022-08-11T15:10:37;29.60;28.40
65034;DHT22;51601;51.356;12.458;2022-08-11T15:15:11;29.70;28.30
65034;DHT22;51601;51.356;12.458;2022-08-11T15:20:07;29.60;28.20
65034;DHT22;51601;51.356;12.458;2022-08-11T15:25:01;29.60;28.20
65034;DHT22;51601;51.356;12.458;2022-08-11T15:29:38;29.50;28.40
65034;DHT22;51601;51.356;12.458;2022-08-11T15:34:32;29.50;28.70
65034;DHT22;51601;51.356;12.458;2022-08-11T15:39:29;29.50;28.60
65034;DHT22;51601;51.356;12.458;2022-08-11T15:44:08;29.50;28.50
65034;DHT22;51601;51.356;12.458;2022-08-11T15:49:23;29.50;28.40
65034;DHT22;51601;51.356;12.458;2022-08-11T15:54:24;29.40;28.40
65034;DHT22;51601;51.356;12.458;2022-08-11T15:59:02;29.40;28.40
65034;DHT22;51601;51.356;12.458;2022-08-11T16:04:16;29.40;28.40
65034;DHT22;51601;51.356;12.458;2022-08-11T16:08:52;29.40;28.40
65034;DHT22;51601;51.356;12.458;2022-08-11T16:13:28;29.40;28.10
65034;DHT22;51601;51.356;12.458;2022-08-11T16:18:27;29.40;28.20
65034;DHT22;51601;51.356;12.458;2022-08-11T16:23:13;29.30;28.20
65034;DHT22;51601;51.356;12.458;2022-08-11T16:27:50;29.30;28.20
65034;DHT22;51601;51.356;12.458;2022-08-11T16:32:25;29.20;27.80
65034;DHT22;51601;51.356;12.458;2022-08-11T16:37:01;29.20;27.80
65034;DHT22;51601;51.356;12.458;2022-08-11T16:41:52;29.10;27.70
65034;DHT22;51601;51.356;12.458;2022-08-11T16:47:04;29.10;27.80
65034;DHT22;51601;51.356;12.458;2022-08-11T16:51:39;29.00;27.70
65034;DHT22;51601;51.356;12.458;2022-08-11T16:56:18;29.00;27.90
65034;DHT22;51601;51.356;12.458;2022-08-11T17:00:53;28.90;27.50
65034;DHT22;51601;51.356;12.458;2022-08-11T17:05:32;28.90;27.40
65034;DHT22;51601;51.356;12.458;2022-08-11T17:10:29;28.90;27.40
65034;DHT22;51601;51.356;12.458;2022-08-11T17:15:28;28.80;27.40
65034;DHT22;51601;51.356;12.458;2022-08-11T17:20:23;28.80;27.40
65034;DHT22;51601;51.356;12.458;2022-08-11T17:25:16;28.80;27.10
65034;DHT22;51601;51.356;12.458;2022-08-11T17:29:53;28.80;27.00
65034;DHT22;51601;51.356;12.458;2022-08-11T17:34:30;28.70;26.90
65034;DHT22;51601;51.356;12.458;2022-08-11T17:39:26;28.50;26.90
65034;DHT22;51601;51.356;12.458;2022-08-11T17:44:02;28.40;26.90
65034;DHT22;51601;51.356;12.458;2022-08-11T17:48:55;28.20;26.90
65034;DHT22;51601;51.356;12.458;2022-08-11T17:53:35;28.10;27.70
65034;DHT22;51601;51.356;12.458;2022-08-11T17:58:47;27.90;27.10
65034;DHT22;51601;51.356;12.458;2022-08-11T18:03:41;27.70;27.20
65034;DHT22;51601;51.356;12.458;2022-08-11T18:08:32;27.60;27.30
65034;DHT22;51601;51.356;12.458;2022-08-11T18:13:29;27.40;27.40
65034;DHT22;51601;51.356;12.458;2022-08-11T18:18:21;27.30;27.50
65034;DHT22;51601;51.356;12.458;2022-08-11T18:23:17;27.10;27.60
65034;DHT22;51601;51.356;12.458;2022-08-11T18:28:23;27.00;27.80
65034;DHT22;51601;51.356;12.458;2022-08-11T18:33:19;26.80;28.00
65034;DHT22;51601;51.356;12.458;2022-08-11T18:38:32;26.70;28.20
65034;DHT22;51601;51.356;12.458;2022-08-11T18:43:26;26.50;28.40
65034;DHT22;51601;51.356;12.458;2022-08-11T18:48:21;26.30;28.60
65034;DHT22;51601;51.356;12.458;2022-08-11T18:53:14;26.10;29.00
65034;DHT22;51601;51.356;12.458;2022-08-11T18:58:09;26.00;29.20
65034;DHT22;51601;51.356;12.458;2022-08-11T19:03:04;25.70;29.40
65034;DHT22;51601;51.356;12.458;2022-08-11T19:07:59;25.50;29.50
65034;DHT22;51601;51.356;12.458;2022-08-11T19:12:52;25.40;29.80
65034;DHT22;51601;51.356;12.458;2022-08-11T19:17:44;25.20;30.00
65034;DHT22;51601;51.356;12.458;2022-08-11T19:22:38;25.10;30.10
65034;DHT22;51601;51.356;12.458;2022-08-11T19:27:31;25.00;30.30
65034;DHT22;51601;51.356;12.458;2022-08-11T19:32:23;24.80;30.60
65034;DHT22;51601;51.356;12.458;2022-08-11T19:37:16;24.70;30.80
65034;DHT22;51601;51.356;12.458;2022-08-11T19:42:17;24.60;31.00
65034;DHT22;51601;51.356;12.458;2022-08-11T19:47:10;24.50;31.20
65034;DHT22;51601;51.356;12.458;2022-08-11T19:52:04;24.40;31.40
65034;DHT22;51601;51.356;12.458;2022-08-11T19:56:56;24.30;31.60
65034;DHT22;51601;51.356;12.458;2022-08-11T20:01:50;24.20;31.80
65034;DHT22;51601;51.356;12.458;2022-08-11T20:06:45;24.10;32.10
65034;DHT22;51601;51.356;12.458;2022-08-11T20:11:42;24.00;32.10
65034;DHT22;51601;51.356;12.458;2022-08-11T20:16:35;24.00;32.10
65034;DHT22;51601;51.356;12.458;2022-08-11T20:21:29;23.90;32.30
65034;DHT22;51601;51.356;12.458;2022-08-11T20:26:21;23.90;32.30
65034;DHT22;51601;51.356;12.458;2022-08-11T20:31:13;23.80;32.50
65034;DHT22;51601;51.356;12.458;2022-08-11T20:36:06;23.60;32.90
65034;DHT22;51601;51.356;12.458;2022-08-11T20:41:00;23.50;33.40
65034;DHT22;51601;51.356;12.458;2022-08-11T20:45:53;23.40;33.60
65034;DHT22;51601;51.356;12.458;2022-08-11T20:50:46;23.20;34.00
65034;DHT22;51601;51.356;12.458;2022-08-11T20:55:39;23.10;34.10
65034;DHT22;51601;51.356;12.458;2022-08-11T21:00:39;22.90;34.50
65034;DHT22;51601;51.356;12.458;2022-08-11T21:05:34;22.80;34.70
65034;DHT22;51601;51.356;12.458;2022-08-11T21:10:42;22.80;35.10
65034;DHT22;51601;51.356;12.458;2022-08-11T21:15:40;22.70;35.40
65034;DHT22;51601;51.356;12.458;2022-08-11T21:20:38;22.70;35.60
65034;DHT22;51601;51.356;12.458;2022-08-11T21:25:34;22.60;35.80
65034;DHT22;51601;51.356;12.458;2022-08-11T21:30:31;22.60;36.00
65034;DHT22;51601;51.356;12.458;2022-08-11T21:35:31;22.50;36.10
65034;DHT22;51601;51.356;12.458;2022-08-11T21:40:24;22.40;36.60
65034;DHT22;51601;51.356;12.458;2022-08-11T21:45:17;22.30;36.80
65034;DHT22;51601;51.356;12.458;2022-08-11T21:50:09;22.30;37.20
65034;DHT22;51601;51.356;12.458;2022-08-11T21:55:03;22.20;37.30
65034;DHT22;51601;51.356;12.458;2022-08-11T21:59:55;22.20;37.60
65034;DHT22;51601;51.356;12.458;2022-08-11T22:04:48;22.10;37.80
65034;DHT22;51601;51.356;12.458;2022-08-11T22:09:43;22.00;38.00
65034;DHT22;51601;51.356;12.458;2022-08-11T22:14:58;21.90;38.00
65034;DHT22;51601;51.356;12.458;2022-08-11T22:19:50;21.80;38.40
65034;DHT22;51601;51.356;12.458;2022-08-11T22:24:42;21.60;38.70
65034;DHT22;51601;51.356;12.458;2022-08-11T22:29:48;21.50;39.10
65034;DHT22;51601;51.356;12.458;2022-08-11T22:34:41;21.40;39.50
65034;DHT22;51601;51.356;12.458;2022-08-11T22:39:35;21.30;39.70
65034;DHT22;51601;51.356;12.458;2022-08-11T22:44:34;21.20;40.00
65034;DHT22;51601;51.356;12.458;2022-08-11T22:49:30;21.10;40.30
65034;DHT22;51601;51.356;12.458;2022-08-11T22:54:31;21.00;40.70
65034;DHT22;51601;51.356;12.458;2022-08-11T22:59:24;20.90;40.90
65034;DHT22;51601;51.356;12.458;2022-08-11T23:04:17;20.80;41.20
65034;DHT22;51601;51.356;12.458;2022-08-11T23:09:10;20.80;41.70
65034;DHT22;51601;51.356;12.458;2022-08-11T23:14:03;20.70;41.70
65034;DHT22;51601;51.356;12.458;2022-08-11T23:19:01;20.60;42.10
65034;DHT22;51601;51.356;12.458;2022-08-11T23:24:14;20.50;42.30
65034;DHT22;51601;51.356;12.458;2022-08-11T23:29:08;20.40;42.60
65034;DHT22;51601;51.356;12.458;2022-08-11T23:34:02;20.30;42.80
65034;DHT22;51601;51.356;12.458;2022-08-11T23:39:14;20.20;43.00
65034;DHT22;51601;51.356;12.458;2022-08-11T23:44:08;20.10;43.30
65034;DHT22;51601;51.356;12.458;2022-08-11T23:49:01;20.00;43.60
65034;DHT22;51601;51.356;12.458;2022-08-11T23:53:54;20.00;43.80
65034;DHT22;51601;51.356;12.458;2022-08-11T23:58:47;19.80;43.90
